createdAt,value
2023-01-06T00:00:12.399Z,4.80
2023-01-06T00:03:15.349Z,4.80
2023-01-06T00:06:18.749Z,4.90
2023-01-06T00:09:21.691Z,5.10
2023-01-06T00:12:26.830Z,4.90
2023-01-06T00:15:30.421Z,5.10
2023-01-06T00:18:33.382Z,5.20
2023-01-06T00:21:36.345Z,5.00
2023-01-06T00:24:39.286Z,5.20
2023-01-06T00:27:43.565Z,5.30
2023-01-06T00:30:46.681Z,5.30
2023-01-06T00:33:49.647Z,5.50
2023-01-06T00:36:52.595Z,5.40
2023-01-06T00:39:55.579Z,5.50
2023-01-06T00:42:59.897Z,5.50
2023-01-06T00:46:03.105Z,5.50
2023-01-06T00:49:07.744Z,5.40
2023-01-06T00:52:10.949Z,5.20
2023-01-06T00:55:13.828Z,5.10
2023-01-06T00:58:18.053Z,5.40
2023-01-06T01:01:21.071Z,5.40
2023-01-06T01:04:25.251Z,5.30
2023-01-06T01:07:28.275Z,5.10
2023-01-06T01:10:31.235Z,5.10
2023-01-06T01:13:35.984Z,5.00
2023-01-06T01:16:39.290Z,5.00
2023-01-06T01:19:42.469Z,5.30
2023-01-06T01:22:45.532Z,5.00
2023-01-06T01:25:48.461Z,5.40
2023-01-06T01:28:52.816Z,5.10
2023-01-06T01:31:56.023Z,5.30
2023-01-06T01:34:58.909Z,5.40
2023-01-06T01:38:01.808Z,5.00
2023-01-06T01:41:05.142Z,5.30
2023-01-06T01:44:41.522Z,5.10
2023-01-06T01:47:49.487Z,5.10
2023-01-06T01:50:56.530Z,5.10
2023-01-06T01:54:02.100Z,5.00
2023-01-06T01:57:09.723Z,5.40
2023-01-06T02:00:13.291Z,5.40
2023-01-06T02:03:17.785Z,5.10
2023-01-06T02:06:22.769Z,5.30
2023-01-06T02:09:29.642Z,5.40
2023-01-06T02:12:32.840Z,5.20
2023-01-06T02:15:35.914Z,5.50
2023-01-06T02:18:54.848Z,5.40
2023-01-06T02:22:17.080Z,5.30
2023-01-06T02:25:48.779Z,5.40
2023-01-06T02:29:20.459Z,5.10
2023-01-06T02:32:37.488Z,5.00
2023-01-06T02:35:58.482Z,5.30
2023-01-06T02:39:14.783Z,5.30
2023-01-06T02:42:21.995Z,5.10
2023-01-06T02:45:36.152Z,5.10
2023-01-06T02:48:51.422Z,5.20
2023-01-06T02:51:59.101Z,4.90
2023-01-06T02:55:06.331Z,5.00
2023-01-06T02:58:15.970Z,5.40
2023-01-06T03:01:24.813Z,5.00
2023-01-06T03:04:34.498Z,5.40
2023-01-06T03:07:39.692Z,5.00
2023-01-06T03:10:45.323Z,5.20
2023-01-06T03:13:53.815Z,5.10
2023-01-06T03:16:57.065Z,5.20
2023-01-06T03:20:01.505Z,5.00
2023-01-06T03:23:04.506Z,5.40
2023-01-06T03:26:07.809Z,5.40
2023-01-06T03:29:14.387Z,5.10
2023-01-06T03:32:23.714Z,5.10
2023-01-06T03:35:48.977Z,5.00
2023-01-06T03:39:03.135Z,5.40
2023-01-06T03:42:37.513Z,5.20
2023-01-06T03:45:50.714Z,5.20
2023-01-06T03:49:06.587Z,5.10
2023-01-06T03:52:19.206Z,5.40
2023-01-06T03:55:26.834Z,5.20
2023-01-06T03:58:31.481Z,5.10
2023-01-06T04:01:35.222Z,5.10
2023-01-06T04:04:38.650Z,5.40
2023-01-06T04:07:43.828Z,5.00
2023-01-06T04:10:46.754Z,5.30
2023-01-06T04:13:48.706Z,5.20
2023-01-06T04:16:51.717Z,5.20
2023-01-06T04:19:54.624Z,5.50
2023-01-06T04:22:59.219Z,5.40
2023-01-06T04:26:02.172Z,5.10
2023-01-06T04:29:05.164Z,5.10
2023-01-06T04:32:08.052Z,5.20
2023-01-06T04:35:11.746Z,5.20
2023-01-06T04:38:16.063Z,5.30
2023-01-06T04:41:19.137Z,5.50
2023-01-06T04:44:22.121Z,5.60
2023-01-06T04:47:25.045Z,5.40
2023-01-06T04:50:28.085Z,5.20
2023-01-06T04:53:35.194Z,5.50
2023-01-06T04:56:38.225Z,5.20
2023-01-06T04:59:41.151Z,5.30
2023-01-06T05:02:44.216Z,5.20
2023-01-06T05:05:47.133Z,5.30
2023-01-06T05:08:51.585Z,5.20
2023-01-06T05:11:54.553Z,5.30
2023-01-06T05:14:57.497Z,5.20
2023-01-06T05:18:00.519Z,5.30
2023-01-06T05:21:04.027Z,5.40
2023-01-06T05:24:10.971Z,5.20
2023-01-06T05:27:14.512Z,5.30
2023-01-06T05:30:17.503Z,5.20
2023-01-06T05:33:20.420Z,5.50
2023-01-06T05:36:24.768Z,5.20
2023-01-06T05:39:29.091Z,5.20
2023-01-06T05:42:32.027Z,5.30
2023-01-06T05:45:34.982Z,5.50
2023-01-06T05:48:39.067Z,5.40
2023-01-06T05:51:42.053Z,5.50
2023-01-06T05:54:46.859Z,5.40
2023-01-06T05:57:49.783Z,5.20
2023-01-06T06:00:52.700Z,5.20
2023-01-06T06:03:56.659Z,5.20
2023-01-06T06:06:59.706Z,5.50
2023-01-06T06:10:04.398Z,5.50
2023-01-06T06:13:07.386Z,5.70
2023-01-06T06:16:12.816Z,5.40
2023-01-06T06:19:16.021Z,5.60
2023-01-06T06:22:19.242Z,5.40
2023-01-06T06:25:23.516Z,5.60
2023-01-06T06:28:26.422Z,5.60
2023-01-06T06:31:30.738Z,5.70
2023-01-06T06:34:33.702Z,5.70
2023-01-06T06:37:36.741Z,5.60
2023-01-06T06:40:44.941Z,5.60
2023-01-06T06:43:49.438Z,5.70
2023-01-06T06:46:52.325Z,5.70
2023-01-06T06:49:55.306Z,5.50
2023-01-06T06:52:58.247Z,5.70
2023-01-06T06:56:02.607Z,5.50
2023-01-06T06:59:05.865Z,5.60
2023-01-06T07:02:09.887Z,5.40
2023-01-06T07:05:12.932Z,5.80
2023-01-06T07:08:16.205Z,5.40
2023-01-06T07:11:21.097Z,5.50
2023-01-06T07:14:24.096Z,5.60
2023-01-06T07:17:28.027Z,5.50
2023-01-06T07:20:31.792Z,5.60
2023-01-06T07:23:35.005Z,5.70
2023-01-06T07:26:39.431Z,5.70
2023-01-06T07:29:42.521Z,5.60
2023-01-06T07:32:45.496Z,5.70
2023-01-06T07:35:48.631Z,5.60
2023-01-06T07:38:51.545Z,5.50
2023-01-06T07:41:55.866Z,6.00
2023-01-06T07:44:58.817Z,5.90
2023-01-06T07:48:02.198Z,5.70
2023-01-06T07:51:05.353Z,5.60
2023-01-06T07:54:08.666Z,5.80
2023-01-06T07:57:13.039Z,5.80
2023-01-06T08:00:16.818Z,5.80
2023-01-06T08:03:19.900Z,5.90
2023-01-06T08:06:22.868Z,5.70
2023-01-06T08:09:25.833Z,5.90
2023-01-06T08:12:30.092Z,5.90
2023-01-06T08:15:33.092Z,5.90
2023-01-06T08:18:36.623Z,6.00
2023-01-06T08:21:39.592Z,6.00
2023-01-06T08:24:42.567Z,6.20
2023-01-06T08:27:46.971Z,6.20
2023-01-06T08:30:49.927Z,6.10
2023-01-06T08:33:53.623Z,6.20
2023-01-06T08:36:56.644Z,6.30
2023-01-06T08:39:59.544Z,5.90
2023-01-06T08:43:03.868Z,6.00
2023-01-06T08:46:09.756Z,6.00
2023-01-06T08:49:12.812Z,6.10
2023-01-06T08:52:15.745Z,6.30
2023-01-06T08:55:18.720Z,6.00
2023-01-06T08:58:23.064Z,6.00
2023-01-06T09:01:28.065Z,6.20
2023-01-06T09:04:30.995Z,6.40
2023-01-06T09:07:33.972Z,6.20
2023-01-06T09:10:38.753Z,6.30
2023-01-06T09:13:43.083Z,6.40
2023-01-06T09:16:47.832Z,6.20
2023-01-06T09:19:50.738Z,6.40
2023-01-06T09:22:53.632Z,6.30
2023-01-06T09:25:56.923Z,6.50
2023-01-06T09:29:01.223Z,6.70
2023-01-06T09:32:04.343Z,6.50
2023-01-06T09:35:08.516Z,6.70
2023-01-06T09:38:11.611Z,6.70
2023-01-06T09:41:34.072Z,6.60
2023-01-06T09:44:47.360Z,7.10
2023-01-06T09:47:55.848Z,7.00
2023-01-06T09:51:04.549Z,7.10
2023-01-06T09:54:14.963Z,7.10
2023-01-06T09:57:23.053Z,7.30
2023-01-06T10:00:36.175Z,7.20
2023-01-06T10:03:39.382Z,7.20
2023-01-06T10:06:45.609Z,7.50
2023-01-06T10:09:58.515Z,7.30
2023-01-06T10:13:13.390Z,7.40
2023-01-06T10:16:29.460Z,7.30
2023-01-06T10:19:48.393Z,7.60
2023-01-06T10:22:59.117Z,7.60
2023-01-06T10:26:12.210Z,7.70
2023-01-06T10:29:18.556Z,7.80
2023-01-06T10:32:26.078Z,7.80
2023-01-06T10:35:29.388Z,7.80
2023-01-06T10:38:36.287Z,7.80
2023-01-06T10:41:47.795Z,7.90
2023-01-06T10:44:50.756Z,8.00
2023-01-06T10:47:56.060Z,8.00
2023-01-06T10:50:59.190Z,8.10
2023-01-06T10:54:04.671Z,8.10
2023-01-06T10:57:13.178Z,8.30
2023-01-06T11:00:20.213Z,8.30
2023-01-06T11:03:33.229Z,8.30
2023-01-06T11:06:39.789Z,8.30
2023-01-06T11:09:44.756Z,8.40
2023-01-06T11:12:47.761Z,8.50
2023-01-06T11:15:51.163Z,8.50
2023-01-06T11:18:58.554Z,8.50
2023-01-06T11:22:01.574Z,8.50
2023-01-06T11:25:22.751Z,8.60
2023-01-06T11:28:26.174Z,8.60
2023-01-06T11:31:29.697Z,8.70
2023-01-06T11:34:34.813Z,8.70
2023-01-06T11:37:40.635Z,8.80
2023-01-06T11:40:45.532Z,8.90
2023-01-06T11:43:50.499Z,9.10
2023-01-06T11:47:00.976Z,8.90
2023-01-06T11:50:06.262Z,8.90
2023-01-06T11:53:18.445Z,9.00
2023-01-06T11:56:21.362Z,9.10
2023-01-06T11:59:26.751Z,9.10
2023-01-06T12:02:36.143Z,9.10
2023-01-06T12:05:47.937Z,9.20
2023-01-06T12:08:56.957Z,9.20
2023-01-06T12:12:03.979Z,9.30
2023-01-06T12:15:14.074Z,9.30
2023-01-06T12:18:22.995Z,9.30
2023-01-06T12:21:31.492Z,9.40
2023-01-06T12:24:35.506Z,9.50
2023-01-06T12:27:43.510Z,9.50
2023-01-06T12:30:53.884Z,9.50
2023-01-06T12:34:01.882Z,9.50
2023-01-06T12:37:16.911Z,9.50
2023-01-06T12:40:27.746Z,9.60
2023-01-06T12:43:34.346Z,9.70
2023-01-06T12:46:41.223Z,9.80
2023-01-06T12:49:49.177Z,9.90
2023-01-06T12:52:59.864Z,9.90
2023-01-06T12:56:22.873Z,9.90
2023-01-06T12:59:35.156Z,10.00
2023-01-06T13:02:54.763Z,10.00
2023-01-06T13:06:14.546Z,10.00
2023-01-06T13:09:31.542Z,10.00
2023-01-06T13:12:53.524Z,10.10
2023-01-06T13:16:01.594Z,10.10
2023-01-06T13:19:15.301Z,10.20
2023-01-06T13:22:24.385Z,10.20
2023-01-06T13:25:58.185Z,10.30
2023-01-06T13:29:09.254Z,10.30
2023-01-06T13:32:32.609Z,10.30
2023-01-06T13:36:03.029Z,10.30
2023-01-06T13:39:08.447Z,10.30
2023-01-06T13:42:16.732Z,10.40
2023-01-06T13:45:23.944Z,10.50
2023-01-06T13:48:30.225Z,10.50
2023-01-06T13:51:35.714Z,10.50
2023-01-06T13:55:06.261Z,10.50
2023-01-06T13:58:45.285Z,10.50
2023-01-06T14:01:50.069Z,10.60
2023-01-06T14:04:53.032Z,10.60
2023-01-06T14:07:59.699Z,10.60
2023-01-06T14:11:08.125Z,10.60
2023-01-06T14:14:27.052Z,10.70
2023-01-06T14:17:38.676Z,10.60
2023-01-06T14:20:41.577Z,10.60
2023-01-06T14:23:53.824Z,10.60
2023-01-06T14:27:01.085Z,10.60
2023-01-06T14:30:19.548Z,10.60
2023-01-06T14:33:35.550Z,10.70
2023-01-06T14:36:38.660Z,10.70
2023-01-06T14:39:47.594Z,10.70
2023-01-06T14:42:52.417Z,10.70
2023-01-06T14:45:55.935Z,10.70
2023-01-06T14:49:02.657Z,10.60
2023-01-06T14:52:11.947Z,10.60
2023-01-06T14:55:18.697Z,10.50
2023-01-06T14:58:32.129Z,10.50
2023-01-06T15:01:37.025Z,10.40
2023-01-06T15:04:43.366Z,10.40
2023-01-06T15:07:57.761Z,10.40
2023-01-06T15:11:14.095Z,10.40
2023-01-06T15:14:27.262Z,10.30
2023-01-06T15:17:30.315Z,10.20
2023-01-06T15:20:40.071Z,10.20
2023-01-06T15:23:47.355Z,10.30
2023-01-06T15:26:51.115Z,10.20
2023-01-06T15:29:56.245Z,10.10
2023-01-06T15:33:00.082Z,10.10
2023-01-06T15:36:05.170Z,10.00
2023-01-06T15:39:11.097Z,10.00
2023-01-06T15:42:16.141Z,10.00
2023-01-06T15:45:28.456Z,10.00
2023-01-06T15:48:33.566Z,10.00
2023-01-06T15:51:37.922Z,10.00
2023-01-06T15:54:46.559Z,9.90
2023-01-06T15:57:55.316Z,9.90
2023-01-06T16:01:01.453Z,9.90
2023-01-06T16:04:04.438Z,9.90
2023-01-06T16:07:34.512Z,9.90
2023-01-06T16:10:39.712Z,9.90
2023-01-06T16:13:43.653Z,9.80
2023-01-06T16:16:46.628Z,9.90
2023-01-06T16:19:52.200Z,9.80
2023-01-06T16:22:57.378Z,9.80
2023-01-06T16:26:10.039Z,9.80
2023-01-06T16:29:27.004Z,9.80
2023-01-06T16:32:38.347Z,9.80
2023-01-06T16:35:41.335Z,9.80
2023-01-06T16:38:46.363Z,9.80
2023-01-06T16:42:38.864Z,9.80
2023-01-06T16:45:44.218Z,9.80
2023-01-06T16:48:47.560Z,9.80
2023-01-06T16:51:51.085Z,9.80
2023-01-06T16:54:56.459Z,9.70
2023-01-06T16:58:00.956Z,9.70
2023-01-06T17:01:13.707Z,9.70
2023-01-06T17:04:17.279Z,9.70
2023-01-06T17:07:20.437Z,9.70
2023-01-06T17:10:25.423Z,9.70
2023-01-06T17:13:35.850Z,9.70
2023-01-06T17:16:42.341Z,9.70
2023-01-06T17:19:45.325Z,9.70
2023-01-06T17:22:50.409Z,9.70
2023-01-06T17:26:01.708Z,9.80
2023-01-06T17:29:13.693Z,9.80
2023-01-06T17:32:20.638Z,9.80
2023-01-06T17:35:28.208Z,9.80
2023-01-06T17:38:31.468Z,9.90
2023-01-06T17:41:35.813Z,9.90
2023-01-06T17:44:41.228Z,9.80
2023-01-06T17:47:47.234Z,9.80
2023-01-06T17:50:52.195Z,9.80
2023-01-06T17:54:24.290Z,9.70
2023-01-06T17:57:28.635Z,9.70
2023-01-06T18:00:34.878Z,9.70
2023-01-06T18:03:41.845Z,9.70
2023-01-06T18:06:52.551Z,9.70
2023-01-06T18:09:55.638Z,9.60
2023-01-06T18:13:10.785Z,9.70
2023-01-06T18:16:31.144Z,9.70
2023-01-06T18:19:36.214Z,9.60
2023-01-06T18:22:40.518Z,9.60
2023-01-06T18:25:43.476Z,9.60
2023-01-06T18:28:47.745Z,9.60
2023-01-06T18:31:52.830Z,9.60
2023-01-06T18:34:57.471Z,9.50
2023-01-06T18:38:02.343Z,9.50
2023-01-06T18:41:10.648Z,9.50
2023-01-06T18:44:19.401Z,9.50
2023-01-06T18:47:24.511Z,9.50
2023-01-06T18:50:31.695Z,9.40
2023-01-06T18:53:41.214Z,9.40
2023-01-06T18:56:44.160Z,9.40
2023-01-06T18:59:48.431Z,9.40
2023-01-06T19:02:52.640Z,9.40
2023-01-06T19:06:18.814Z,9.30
2023-01-06T19:09:30.436Z,9.30
2023-01-06T19:12:35.996Z,9.30
2023-01-06T19:15:40.399Z,9.30
2023-01-06T19:18:43.312Z,9.30
2023-01-06T19:21:46.542Z,9.30
2023-01-06T19:25:04.201Z,9.20
2023-01-06T19:28:13.781Z,9.10
2023-01-06T19:31:23.099Z,9.10
2023-01-06T19:34:27.123Z,9.10
2023-01-06T19:37:30.793Z,9.00
2023-01-06T19:40:42.356Z,9.00
2023-01-06T19:43:45.385Z,9.00
2023-01-06T19:46:49.979Z,9.00
2023-01-06T19:49:58.561Z,9.00
2023-01-06T19:53:01.629Z,9.00
2023-01-06T19:56:19.091Z,9.00
2023-01-06T19:59:25.829Z,9.00
2023-01-06T20:02:32.763Z,8.90
2023-01-06T20:05:36.499Z,8.90
2023-01-06T20:08:41.135Z,8.80
2023-01-06T20:11:44.163Z,8.80
2023-01-06T20:14:47.169Z,8.80
2023-01-06T20:17:51.449Z,8.80
2023-01-06T20:20:54.403Z,8.70
2023-01-06T20:23:58.452Z,8.70
2023-01-06T20:27:01.396Z,8.70
2023-01-06T20:30:04.957Z,8.70
2023-01-06T20:33:09.246Z,8.70
2023-01-06T20:36:16.921Z,8.60
2023-01-06T20:39:19.980Z,8.60
2023-01-06T20:42:22.941Z,8.60
2023-01-06T20:45:25.911Z,8.60
2023-01-06T20:48:30.216Z,8.60
2023-01-06T20:51:33.110Z,8.60
2023-01-06T20:54:36.031Z,8.60
2023-01-06T20:57:38.917Z,8.50
2023-01-06T21:00:41.896Z,8.50
2023-01-06T21:03:46.228Z,8.50
2023-01-06T21:06:49.293Z,8.50
2023-01-06T21:09:52.373Z,8.40
2023-01-06T21:12:55.683Z,8.40
2023-01-06T21:15:58.605Z,8.50
2023-01-06T21:19:02.893Z,8.30
2023-01-06T21:22:05.860Z,8.40
2023-01-06T21:25:09.456Z,8.40
2023-01-06T21:28:12.392Z,8.40
2023-01-06T21:31:15.488Z,8.40
2023-01-06T21:34:19.855Z,8.40
2023-01-06T21:37:22.832Z,8.40
2023-01-06T21:40:25.845Z,8.40
2023-01-06T21:43:27.777Z,8.40
2023-01-06T21:46:32.071Z,8.40
2023-01-06T21:49:36.620Z,8.40
2023-01-06T21:52:39.701Z,8.30
2023-01-06T21:55:42.712Z,8.30
2023-01-06T21:58:45.620Z,8.20
2023-01-06T22:01:48.645Z,8.20
2023-01-06T22:04:53.141Z,8.10
2023-01-06T22:07:56.187Z,8.20
2023-01-06T22:10:59.639Z,8.20
2023-01-06T22:14:02.803Z,8.10
2023-01-06T22:17:05.965Z,8.10
2023-01-06T22:20:13.267Z,8.00
2023-01-06T22:23:20.104Z,8.00
2023-01-06T22:26:23.046Z,7.90
2023-01-06T22:29:26.081Z,7.90
2023-01-06T22:32:29.170Z,7.90
2023-01-06T22:35:33.483Z,7.90
2023-01-06T22:38:37.007Z,7.90
2023-01-06T22:41:39.928Z,7.90
2023-01-06T22:44:42.913Z,7.80
2023-01-06T22:47:45.883Z,7.80
2023-01-06T22:50:56.724Z,7.80
2023-01-06T22:53:59.904Z,8.00
2023-01-06T22:57:02.837Z,7.90
2023-01-06T23:00:12.309Z,7.90
2023-01-06T23:03:15.355Z,8.20
2023-01-06T23:06:19.891Z,7.90
2023-01-06T23:09:22.847Z,8.00
2023-01-06T23:12:25.836Z,8.00
2023-01-06T23:15:28.806Z,8.00
2023-01-06T23:18:32.892Z,8.00
2023-01-06T23:21:37.226Z,8.00
2023-01-06T23:24:40.189Z,8.00
2023-01-06T23:27:43.171Z,8.00
2023-01-06T23:30:46.155Z,7.90
2023-01-06T23:33:51.231Z,7.90
2023-01-06T23:36:55.529Z,7.80
2023-01-06T23:39:58.539Z,7.80
2023-01-06T23:43:01.452Z,7.70
2023-01-06T23:46:06.266Z,7.80
2023-01-06T23:49:11.836Z,7.70
2023-01-06T23:52:16.104Z,7.60
2023-01-06T23:55:19.022Z,7.60
2023-01-06T23:58:22.177Z,7.60
